createdAt,value
2019-03-29T00:00:41.227Z,15.83
2019-03-29T00:03:13.076Z,14.67
2019-03-29T00:05:44.873Z,13.67
2019-03-29T00:08:16.128Z,14.37
2019-03-29T00:10:47.303Z,15.97
2019-03-29T00:13:18.577Z,16.37
2019-03-29T00:15:49.508Z,13.60
2019-03-29T00:18:20.810Z,12.47
2019-03-29T00:20:51.752Z,13.37
2019-03-29T00:23:26.084Z,13.23
2019-03-29T00:25:57.078Z,12.83
2019-03-29T00:28:28.029Z,13.83
2019-03-29T00:30:58.934Z,16.90
2019-03-29T00:33:29.850Z,17.53
2019-03-29T00:36:01.162Z,18.93
2019-03-29T00:38:32.052Z,16.07
2019-03-29T00:41:02.947Z,14.93
2019-03-29T00:43:34.827Z,13.37
2019-03-29T00:46:06.009Z,15.83
2019-03-29T00:48:37.094Z,13.90
2019-03-29T00:51:08.124Z,13.15
2019-03-29T00:53:39.089Z,15.43
2019-03-29T00:56:10.134Z,17.50
2019-03-29T00:58:41.524Z,19.00
2019-03-29T01:01:12.639Z,18.50
2019-03-29T01:03:44.056Z,24.97
2019-03-29T01:06:15.029Z,24.63
2019-03-29T01:08:46.543Z,20.80
2019-03-29T01:11:17.727Z,22.57
2019-03-29T01:13:48.742Z,20.07
2019-03-29T01:16:19.696Z,25.07
2019-03-29T01:19:01.844Z,22.57
2019-03-29T01:21:32.828Z,24.23
2019-03-29T01:24:03.776Z,23.87
2019-03-29T01:26:34.714Z,23.43
2019-03-29T01:29:05.727Z,19.77
2019-03-29T01:31:36.659Z,23.43
2019-03-29T01:34:07.740Z,24.33
2019-03-29T01:36:39.054Z,24.10
2019-03-29T01:39:10.355Z,22.00
2019-03-29T01:41:41.481Z,25.20
2019-03-29T01:44:13.369Z,26.23
2019-03-29T01:46:44.303Z,25.60
2019-03-29T01:49:15.889Z,24.83
2019-03-29T01:51:47.268Z,26.03
2019-03-29T01:54:18.306Z,27.30
2019-03-29T01:56:49.215Z,22.93
2019-03-29T01:59:20.617Z,25.80
2019-03-29T02:01:52.272Z,22.20
2019-03-29T02:04:23.151Z,30.90
2019-03-29T02:06:54.131Z,27.17
2019-03-29T02:09:25.400Z,26.40
2019-03-29T02:11:56.758Z,22.33
2019-03-29T02:14:28.215Z,25.83
2019-03-29T02:16:59.091Z,26.20
2019-03-29T02:19:31.963Z,26.17
2019-03-29T02:22:03.009Z,28.03
2019-03-29T02:24:33.968Z,29.17
2019-03-29T02:27:05.331Z,26.03
2019-03-29T02:29:36.963Z,24.07
2019-03-29T02:32:08.218Z,25.53
2019-03-29T02:34:39.192Z,23.30
2019-03-29T02:37:10.178Z,26.17
2019-03-29T02:39:41.453Z,28.37
2019-03-29T02:42:14.781Z,30.77
2019-03-29T02:44:45.610Z,32.53
2019-03-29T02:47:16.523Z,36.43
2019-03-29T02:49:47.968Z,41.70
2019-03-29T02:52:18.908Z,37.80
2019-03-29T02:54:49.831Z,37.77
2019-03-29T02:57:21.078Z,35.50
2019-03-29T02:59:52.079Z,33.63
2019-03-29T03:02:26.379Z,37.27
2019-03-29T03:04:55.735Z,33.93
2019-03-29T03:07:26.673Z,34.27
2019-03-29T03:09:57.533Z,35.57
2019-03-29T03:12:28.454Z,31.73
2019-03-29T03:14:59.322Z,32.13
2019-03-29T03:17:30.693Z,31.53
2019-03-29T03:20:01.565Z,30.77
2019-03-29T03:22:32.981Z,30.13
2019-03-29T03:25:04.857Z,29.20
2019-03-29T03:27:35.767Z,27.83
2019-03-29T03:30:08.180Z,26.37
2019-03-29T03:32:39.197Z,26.03
2019-03-29T03:35:11.299Z,24.00
2019-03-29T03:37:42.269Z,23.87
2019-03-29T03:40:13.690Z,22.37
2019-03-29T03:42:44.717Z,23.90
2019-03-29T03:45:16.082Z,22.57
2019-03-29T03:47:47.374Z,23.17
2019-03-29T03:50:40.145Z,22.70
2019-03-29T03:53:12.061Z,22.10
2019-03-29T03:55:43.601Z,21.37
2019-03-29T03:58:14.619Z,22.40
2019-03-29T04:00:59.274Z,21.30
2019-03-29T04:03:30.589Z,21.27
2019-03-29T04:06:01.562Z,19.57
2019-03-29T04:08:32.514Z,21.13
2019-03-29T04:11:03.815Z,19.27
2019-03-29T04:13:34.781Z,20.47
2019-03-29T04:16:05.843Z,19.73
2019-03-29T04:18:36.783Z,21.23
2019-03-29T04:21:08.081Z,20.77
2019-03-29T04:23:39.515Z,20.70
2019-03-29T04:26:11.489Z,19.13
2019-03-29T04:28:42.838Z,19.77
2019-03-29T04:31:14.438Z,18.93
2019-03-29T04:33:45.323Z,21.37
2019-03-29T04:36:16.598Z,18.27
2019-03-29T04:38:47.559Z,19.43
2019-03-29T04:41:18.981Z,20.60
2019-03-29T04:43:50.373Z,18.40
2019-03-29T04:46:21.299Z,16.93
2019-03-29T04:48:52.224Z,16.60
2019-03-29T04:51:23.174Z,16.70
2019-03-29T04:53:54.711Z,15.60
2019-03-29T04:56:25.750Z,15.87
2019-03-29T04:58:57.003Z,18.10
2019-03-29T05:01:28.029Z,19.77
2019-03-29T05:03:59.006Z,17.17
2019-03-29T05:06:29.833Z,18.77
2019-03-29T05:09:01.521Z,19.23
2019-03-29T05:11:32.473Z,19.33
2019-03-29T05:14:03.426Z,18.57
2019-03-29T05:16:34.413Z,20.10
2019-03-29T05:19:05.818Z,20.23
2019-03-29T05:21:36.708Z,22.07
2019-03-29T05:24:07.708Z,19.27
2019-03-29T05:26:39.096Z,20.13
2019-03-29T05:29:11.476Z,19.47
2019-03-29T05:31:42.872Z,20.20
2019-03-29T05:34:13.902Z,25.50
2019-03-29T05:36:45.286Z,25.00
2019-03-29T05:39:16.544Z,25.43
2019-03-29T05:41:47.867Z,25.40
2019-03-29T05:44:19.230Z,25.80
2019-03-29T05:46:50.261Z,23.80
2019-03-29T05:49:21.524Z,22.97
2019-03-29T05:51:52.560Z,24.23
2019-03-29T05:54:23.528Z,26.00
2019-03-29T05:56:54.417Z,24.13
2019-03-29T05:59:25.881Z,24.10
2019-03-29T06:01:56.927Z,25.27
2019-03-29T06:04:27.870Z,25.90
2019-03-29T06:06:58.844Z,24.70
2019-03-29T06:09:29.836Z,24.50
2019-03-29T06:12:12.382Z,29.40
2019-03-29T06:14:43.315Z,27.00
2019-03-29T06:17:14.209Z,29.40
2019-03-29T06:19:45.206Z,28.83
2019-03-29T06:22:16.579Z,33.87
2019-03-29T06:24:47.606Z,34.67
2019-03-29T06:27:19.004Z,36.30
2019-03-29T06:29:50.962Z,36.23
2019-03-29T06:32:22.203Z,36.30
2019-03-29T06:34:53.116Z,39.10
2019-03-29T06:37:24.565Z,35.90
2019-03-29T06:39:57.107Z,34.83
2019-03-29T06:42:28.262Z,38.83
2019-03-29T06:44:59.244Z,38.97
2019-03-29T06:47:30.530Z,39.27
2019-03-29T06:50:01.913Z,35.70
2019-03-29T06:52:32.810Z,42.17
2019-03-29T06:55:03.763Z,45.20
2019-03-29T06:57:34.637Z,46.83
2019-03-29T07:00:06.082Z,46.50
2019-03-29T07:02:37.272Z,48.33
2019-03-29T07:05:08.778Z,43.27
2019-03-29T07:07:44.526Z,43.07
2019-03-29T07:10:14.885Z,40.90
2019-03-29T07:12:45.664Z,42.17
2019-03-29T07:15:16.989Z,41.87
2019-03-29T07:17:48.202Z,41.20
2019-03-29T07:20:37.124Z,42.33
2019-03-29T07:23:08.182Z,47.73
2019-03-29T07:25:39.380Z,46.20
2019-03-29T07:28:10.903Z,38.80
2019-03-29T07:30:41.734Z,35.77
2019-03-29T07:33:12.488Z,36.30
2019-03-29T07:35:43.388Z,37.00
2019-03-29T07:38:14.468Z,38.67
2019-03-29T07:40:46.018Z,36.00
2019-03-29T07:43:17.152Z,36.40
2019-03-29T07:45:47.995Z,37.80
2019-03-29T07:48:18.812Z,38.97
2019-03-29T07:50:49.648Z,39.70
2019-03-29T07:53:20.461Z,35.30
2019-03-29T07:55:51.638Z,39.03
2019-03-29T07:58:22.802Z,37.30
2019-03-29T08:00:53.893Z,37.93
2019-03-29T08:03:24.999Z,37.87
2019-03-29T08:05:56.159Z,36.80
2019-03-29T08:08:32.319Z,37.17
2019-03-29T08:11:00.030Z,35.60
2019-03-29T08:13:30.803Z,38.37
2019-03-29T08:16:01.685Z,39.70
2019-03-29T08:18:33.197Z,39.00
2019-03-29T08:21:04.054Z,42.40
2019-03-29T08:23:34.858Z,42.20
2019-03-29T08:26:06.028Z,42.43
2019-03-29T08:28:36.797Z,43.40
2019-03-29T08:31:07.599Z,42.63
2019-03-29T08:33:38.397Z,42.97
2019-03-29T08:36:09.139Z,45.33
2019-03-29T08:38:39.975Z,43.63
2019-03-29T08:41:10.763Z,43.70
2019-03-29T08:43:41.480Z,43.40
2019-03-29T08:46:12.303Z,43.53
2019-03-29T08:48:43.147Z,45.37
2019-03-29T08:51:14.317Z,43.67
2019-03-29T08:53:45.124Z,43.20
2019-03-29T08:56:15.961Z,44.23
2019-03-29T08:58:47.027Z,40.43
2019-03-29T09:01:19.577Z,40.10
2019-03-29T09:04:03.250Z,38.13
2019-03-29T09:06:23.100Z,37.60
2019-03-29T09:08:54.293Z,38.23
2019-03-29T09:11:25.422Z,35.93
2019-03-29T09:13:56.217Z,35.97
2019-03-29T09:16:27.048Z,36.03
2019-03-29T09:18:58.162Z,36.90
2019-03-29T09:21:28.987Z,35.03
2019-03-29T09:23:59.799Z,34.23
2019-03-29T09:26:30.564Z,38.37
2019-03-29T09:29:01.372Z,34.33
2019-03-29T09:31:32.093Z,36.70
2019-03-29T09:34:03.218Z,35.53
2019-03-29T09:36:34.012Z,36.00
2019-03-29T09:39:07.234Z,35.47
2019-03-29T09:41:38.320Z,34.57
2019-03-29T09:44:09.545Z,36.67
2019-03-29T09:46:40.342Z,36.87
2019-03-29T09:49:11.424Z,35.00
2019-03-29T09:51:42.226Z,34.17
2019-03-29T09:54:12.924Z,34.63
2019-03-29T09:56:43.699Z,33.30
2019-03-29T09:59:16.449Z,31.83
2019-03-29T10:01:47.552Z,30.47
2019-03-29T10:04:18.344Z,32.53
2019-03-29T10:06:49.432Z,31.50
2019-03-29T10:09:20.194Z,32.23
2019-03-29T10:11:51.016Z,31.27
2019-03-29T10:14:21.800Z,30.63
2019-03-29T10:16:52.889Z,30.50
2019-03-29T10:19:24.068Z,29.57
2019-03-29T10:21:55.361Z,30.67
2019-03-29T10:24:26.516Z,29.27
2019-03-29T10:26:57.596Z,30.90
2019-03-29T10:29:28.335Z,28.90
2019-03-29T10:31:59.024Z,28.10
2019-03-29T10:34:29.871Z,27.73
2019-03-29T10:37:00.661Z,28.73
2019-03-29T10:39:31.444Z,28.87
2019-03-29T10:42:02.296Z,27.60
2019-03-29T10:44:33.057Z,28.17
2019-03-29T10:47:03.946Z,27.10
2019-03-29T10:49:35.056Z,26.23
2019-03-29T10:52:05.906Z,27.07
2019-03-29T10:54:36.715Z,26.67
2019-03-29T10:57:07.456Z,25.57
2019-03-29T10:59:38.302Z,23.10
2019-03-29T11:02:09.145Z,24.00
2019-03-29T11:04:40.016Z,25.53
2019-03-29T11:07:11.077Z,25.07
2019-03-29T11:09:41.925Z,23.93
2019-03-29T11:12:12.679Z,23.73
2019-03-29T11:14:43.474Z,22.80
2019-03-29T11:17:14.633Z,24.73
2019-03-29T11:19:45.461Z,23.73
2019-03-29T11:22:16.585Z,23.67
2019-03-29T11:24:47.727Z,24.17
2019-03-29T11:27:18.551Z,23.07
2019-03-29T11:29:49.316Z,23.67
2019-03-29T11:32:20.031Z,23.67
2019-03-29T11:34:52.212Z,24.87
2019-03-29T11:37:23.060Z,21.87
2019-03-29T11:39:53.846Z,20.37
2019-03-29T11:42:25.948Z,21.30
2019-03-29T11:44:56.735Z,21.90
2019-03-29T11:47:27.540Z,20.13
2019-03-29T11:49:58.714Z,21.03
2019-03-29T11:52:29.495Z,20.33
2019-03-29T11:55:00.423Z,17.67
2019-03-29T11:57:31.519Z,17.30
2019-03-29T12:00:02.333Z,17.80
2019-03-29T12:02:33.139Z,19.63
2019-03-29T12:05:04.047Z,19.00
2019-03-29T12:07:34.842Z,19.90
2019-03-29T12:10:06.332Z,18.37
2019-03-29T12:12:37.132Z,16.80
2019-03-29T12:15:08.929Z,17.97
2019-03-29T12:17:39.718Z,17.27
2019-03-29T12:20:10.456Z,13.97
2019-03-29T12:22:41.266Z,13.80
2019-03-29T12:25:12.467Z,15.57
2019-03-29T12:27:43.631Z,15.00
2019-03-29T12:30:30.657Z,14.80
2019-03-29T12:32:47.706Z,11.77
2019-03-29T12:35:18.785Z,11.10
2019-03-29T12:37:49.637Z,11.67
2019-03-29T12:40:20.874Z,13.40
2019-03-29T12:42:52.334Z,13.80
2019-03-29T12:45:23.482Z,10.13
2019-03-29T12:47:54.231Z,9.47
2019-03-29T12:50:25.093Z,11.43
2019-03-29T12:52:56.259Z,11.27
2019-03-29T12:55:27.072Z,11.93
2019-03-29T12:57:57.979Z,12.53
2019-03-29T13:00:29.299Z,12.80
2019-03-29T13:03:00.085Z,13.37
2019-03-29T13:05:31.251Z,17.83
2019-03-29T13:08:02.353Z,16.23
2019-03-29T13:10:33.229Z,13.53
2019-03-29T13:13:04.006Z,14.87
2019-03-29T13:15:35.184Z,15.20
2019-03-29T13:18:06.047Z,16.37
2019-03-29T13:20:36.895Z,19.43
2019-03-29T13:23:08.027Z,18.77
2019-03-29T13:25:38.840Z,19.33
2019-03-29T13:28:10.024Z,19.30
2019-03-29T13:30:40.847Z,18.87
2019-03-29T13:33:12.030Z,19.40
2019-03-29T13:35:44.646Z,18.27
2019-03-29T13:38:15.536Z,18.50
2019-03-29T13:40:46.283Z,16.90
2019-03-29T13:43:17.040Z,17.73
2019-03-29T13:45:48.044Z,17.87
2019-03-29T13:48:19.204Z,18.60
2019-03-29T13:50:50.366Z,18.53
2019-03-29T13:53:22.334Z,18.30
2019-03-29T13:55:53.139Z,19.13
2019-03-29T13:58:23.971Z,18.10
2019-03-29T14:00:55.168Z,17.20
2019-03-29T14:03:25.994Z,18.90
2019-03-29T14:05:56.792Z,18.70
2019-03-29T14:08:29.036Z,17.83
2019-03-29T14:10:59.787Z,18.53
2019-03-29T14:13:30.620Z,16.63
2019-03-29T14:16:01.433Z,19.47
2019-03-29T14:18:32.520Z,17.37
2019-03-29T14:21:05.080Z,17.97
2019-03-29T14:23:35.909Z,19.37
2019-03-29T14:26:06.727Z,17.63
2019-03-29T14:28:37.501Z,18.13
2019-03-29T14:31:08.670Z,19.13
2019-03-29T14:33:39.472Z,19.03
2019-03-29T14:36:10.623Z,18.63
2019-03-29T14:38:41.406Z,18.17
2019-03-29T14:41:12.165Z,17.13
2019-03-29T14:43:43.366Z,17.93
2019-03-29T14:46:14.475Z,17.30
2019-03-29T14:48:45.573Z,17.73
2019-03-29T14:51:27.548Z,16.50
2019-03-29T14:53:58.329Z,16.57
2019-03-29T14:56:29.564Z,16.27
2019-03-29T14:59:00.330Z,17.67
2019-03-29T15:01:31.060Z,16.00
2019-03-29T15:04:01.789Z,17.63
2019-03-29T15:06:32.896Z,16.70
2019-03-29T15:09:06.212Z,17.53
2019-03-29T15:11:36.933Z,15.23
2019-03-29T15:14:08.008Z,27.57
2019-03-29T15:16:39.165Z,31.80
2019-03-29T15:19:10.264Z,32.53
2019-03-29T15:21:41.449Z,33.87
2019-03-29T15:24:12.240Z,33.63
2019-03-29T15:26:43.154Z,33.07
2019-03-29T15:29:13.917Z,33.27
2019-03-29T15:31:44.717Z,34.70
2019-03-29T15:34:15.483Z,32.80
2019-03-29T15:36:46.649Z,32.97
2019-03-29T15:39:17.428Z,32.17
2019-03-29T15:41:48.236Z,32.07
2019-03-29T15:44:19.041Z,33.63
2019-03-29T15:46:50.236Z,33.67
2019-03-29T15:49:21.028Z,33.30
2019-03-29T15:51:52.195Z,36.10
2019-03-29T15:54:23.043Z,35.20
2019-03-29T15:56:53.875Z,36.37
2019-03-29T15:59:24.711Z,36.67
2019-03-29T16:01:55.840Z,36.77
2019-03-29T16:04:26.637Z,37.90
2019-03-29T16:06:57.786Z,37.03
2019-03-29T16:09:28.926Z,39.63
2019-03-29T16:11:59.906Z,39.43
2019-03-29T16:14:30.763Z,37.13
2019-03-29T16:17:02.140Z,37.10
2019-03-29T16:19:32.933Z,37.43
2019-03-29T16:22:06.059Z,38.60
2019-03-29T16:24:36.185Z,36.13
2019-03-29T16:27:07.032Z,36.30
2019-03-29T16:29:38.491Z,35.27
2019-03-29T16:32:09.358Z,34.73
2019-03-29T16:34:41.218Z,35.33
2019-03-29T16:37:12.104Z,35.00
2019-03-29T16:39:42.897Z,35.10
2019-03-29T16:42:13.688Z,35.67
2019-03-29T16:44:44.465Z,35.47
2019-03-29T16:47:15.714Z,36.53
2019-03-29T16:49:46.816Z,35.43
2019-03-29T16:52:17.595Z,37.70
2019-03-29T16:54:48.766Z,36.83
2019-03-29T16:57:19.918Z,38.30
2019-03-29T16:59:50.687Z,34.93
2019-03-29T17:02:21.451Z,42.10
2019-03-29T17:04:52.482Z,41.00
2019-03-29T17:07:23.580Z,38.03
2019-03-29T17:09:54.405Z,37.77
2019-03-29T17:12:25.201Z,40.90
2019-03-29T17:14:56.058Z,41.40
2019-03-29T17:17:26.837Z,42.47
2019-03-29T17:19:57.723Z,41.53
2019-03-29T17:22:28.576Z,42.00
2019-03-29T17:24:59.703Z,41.57
2019-03-29T17:27:30.840Z,42.97
2019-03-29T17:30:01.614Z,44.07
2019-03-29T17:32:32.751Z,43.30
2019-03-29T17:35:04.357Z,42.83
2019-03-29T17:37:35.151Z,44.23
2019-03-29T17:40:07.380Z,45.07
2019-03-29T17:42:38.827Z,42.83
2019-03-29T17:45:09.725Z,43.77
2019-03-29T17:47:40.814Z,44.27
2019-03-29T17:50:11.845Z,44.60
2019-03-29T17:52:42.677Z,44.77
2019-03-29T17:55:13.478Z,43.80
2019-03-29T17:57:44.655Z,41.27
2019-03-29T18:00:17.575Z,41.70
2019-03-29T18:02:48.403Z,42.10
2019-03-29T18:05:19.531Z,43.87
2019-03-29T18:07:50.729Z,44.27
2019-03-29T18:10:21.522Z,42.00
2019-03-29T18:12:52.984Z,40.27
2019-03-29T18:15:23.822Z,40.70
2019-03-29T18:17:55.264Z,45.27
2019-03-29T18:20:26.404Z,42.80
2019-03-29T18:22:57.177Z,42.30
2019-03-29T18:25:27.904Z,44.47
2019-03-29T18:27:59.765Z,47.40
2019-03-29T18:30:41.627Z,46.93
2019-03-29T18:33:12.596Z,45.53
2019-03-29T18:35:43.494Z,46.57
2019-03-29T18:38:14.293Z,46.20
2019-03-29T18:40:45.094Z,45.83
2019-03-29T18:43:15.903Z,49.27
2019-03-29T18:45:46.702Z,47.03
2019-03-29T18:48:17.406Z,48.10
2019-03-29T18:50:48.879Z,47.97
2019-03-29T18:53:19.633Z,48.43
2019-03-29T18:55:50.616Z,45.60
2019-03-29T18:58:21.442Z,47.47
2019-03-29T19:00:52.276Z,45.60
2019-03-29T19:03:23.031Z,47.47
2019-03-29T19:05:53.836Z,48.50
2019-03-29T19:08:24.583Z,50.17
2019-03-29T19:10:55.798Z,48.03
2019-03-29T19:13:26.568Z,48.33
2019-03-29T19:15:57.335Z,49.47
2019-03-29T19:18:28.441Z,50.83
2019-03-29T19:20:59.302Z,52.17
2019-03-29T19:23:30.473Z,48.90
2019-03-29T19:26:01.205Z,49.17
2019-03-29T19:28:32.070Z,52.33
2019-03-29T19:31:02.860Z,52.17
2019-03-29T19:33:33.684Z,52.00
2019-03-29T19:36:04.466Z,50.97
2019-03-29T19:38:35.257Z,47.07
2019-03-29T19:41:06.087Z,47.70
2019-03-29T19:43:36.899Z,52.10
2019-03-29T19:46:07.928Z,51.27
2019-03-29T19:48:39.149Z,51.70
2019-03-29T19:51:09.985Z,50.50
2019-03-29T19:53:40.822Z,50.10
2019-03-29T19:56:11.661Z,49.53
2019-03-29T19:58:42.418Z,50.97
2019-03-29T20:01:14.620Z,50.77
2019-03-29T20:03:45.363Z,50.47
2019-03-29T20:06:16.528Z,53.43
2019-03-29T20:08:47.364Z,50.90
2019-03-29T20:11:18.240Z,51.40
2019-03-29T20:13:49.481Z,51.70
2019-03-29T20:16:20.614Z,49.87
2019-03-29T20:18:52.227Z,51.70
2019-03-29T20:21:23.298Z,52.43
2019-03-29T20:23:54.756Z,53.60
2019-03-29T20:26:25.558Z,49.33
2019-03-29T20:28:56.348Z,53.93
2019-03-29T20:31:27.477Z,52.90
2019-03-29T20:33:58.260Z,51.13
2019-03-29T20:36:29.024Z,52.43
2019-03-29T20:38:59.806Z,51.40
2019-03-29T20:41:30.603Z,53.87
2019-03-29T20:44:01.494Z,51.80
2019-03-29T20:46:32.285Z,49.97
2019-03-29T20:49:03.117Z,53.03
2019-03-29T20:51:34.253Z,52.27
2019-03-29T20:54:05.356Z,52.73
2019-03-29T20:56:36.615Z,50.50
2019-03-29T20:59:07.395Z,49.70
2019-03-29T21:01:38.532Z,49.70
2019-03-29T21:04:09.301Z,51.90
2019-03-29T21:06:40.081Z,48.87
2019-03-29T21:09:12.075Z,52.37
2019-03-29T21:11:42.947Z,49.77
2019-03-29T21:14:13.737Z,49.90
2019-03-29T21:16:44.502Z,52.80
2019-03-29T21:19:15.577Z,46.97
2019-03-29T21:21:46.709Z,50.80
2019-03-29T21:24:18.355Z,50.40
2019-03-29T21:26:49.184Z,50.23
2019-03-29T21:29:19.986Z,49.50
2019-03-29T21:31:49.985Z,51.67
2019-03-29T21:34:21.256Z,48.87
2019-03-29T21:36:52.552Z,50.67
2019-03-29T21:39:23.304Z,49.70
2019-03-29T21:41:54.117Z,51.90
2019-03-29T21:44:25.236Z,49.70
2019-03-29T21:46:56.077Z,51.53
2019-03-29T21:49:27.128Z,51.77
2019-03-29T21:51:57.923Z,48.77
2019-03-29T21:54:28.735Z,48.47
2019-03-29T21:56:59.648Z,50.97
2019-03-29T21:59:30.722Z,50.97
2019-03-29T22:02:01.896Z,49.57
2019-03-29T22:04:32.637Z,53.27
2019-03-29T22:07:03.413Z,51.93
2019-03-29T22:09:37.054Z,50.60
2019-03-29T22:12:07.727Z,50.90
2019-03-29T22:14:38.863Z,47.13
2019-03-29T22:17:10.028Z,52.27
2019-03-29T22:19:41.096Z,50.87
2019-03-29T22:22:11.876Z,50.93
2019-03-29T22:24:42.582Z,51.60
2019-03-29T22:27:13.388Z,49.23
2019-03-29T22:29:44.514Z,50.13
2019-03-29T22:32:15.298Z,51.93
2019-03-29T22:34:46.114Z,52.30
2019-03-29T22:37:17.532Z,52.70
2019-03-29T22:39:48.294Z,50.50
2019-03-29T22:42:19.701Z,48.67
2019-03-29T22:44:50.514Z,51.67
2019-03-29T22:47:21.635Z,51.93
2019-03-29T22:49:52.792Z,51.03
2019-03-29T22:52:23.627Z,49.13
2019-03-29T22:54:54.703Z,49.53
2019-03-29T22:57:25.526Z,49.67
2019-03-29T22:59:56.703Z,51.67
2019-03-29T23:02:27.878Z,49.97
2019-03-29T23:04:58.613Z,48.73
2019-03-29T23:07:29.839Z,50.63
2019-03-29T23:10:00.553Z,49.03
2019-03-29T23:12:31.318Z,50.57
2019-03-29T23:15:02.150Z,52.40
2019-03-29T23:17:33.002Z,51.83
2019-03-29T23:20:04.565Z,49.57
2019-03-29T23:22:35.351Z,49.83
2019-03-29T23:25:07.399Z,50.57
2019-03-29T23:27:38.239Z,52.87
2019-03-29T23:30:10.491Z,54.53
2019-03-29T23:32:41.564Z,48.80
2019-03-29T23:35:12.359Z,49.43
2019-03-29T23:37:43.152Z,52.40
2019-03-29T23:40:14.302Z,51.53
2019-03-29T23:42:45.387Z,48.23
2019-03-29T23:45:16.169Z,51.67
2019-03-29T23:47:47.273Z,52.47
2019-03-29T23:50:18.164Z,50.40
2019-03-29T23:52:49.275Z,53.17
2019-03-29T23:55:21.140Z,50.40
2019-03-29T23:57:51.908Z,51.83
